YTX YBWW-YBWW
Flight info
| Callsign | YTX |
|---|---|
| Flight time | 0h 45m |
| Altitude | 5000 |
| Route | LOFFA1 LUKEY OMBAS YDAY LUGDO |
| Aircraft | DA40/L-VGDW/C |
Departure
| Time | 2026-04-25 07:56 |
|---|---|
| Airport | Toowoomba Wellcamp Airport (YBWW) |
Arrival
| Time | 2026-04-25 08:42 |
|---|---|
| Airport | Toowoomba Wellcamp Airport (YBWW) |
| Time | Latitude | Longitude | Altitude | Speed | Heading |
|---|---|---|---|---|---|
| 2026-04-25 07:37 | -27.55210 | 151.79321 | 1459 ft | 0 kts | 41° |
| 2026-04-25 07:37 | -27.55203 | 151.79332 | 1459 ft | 2 kts | 65° |
| 2026-04-25 07:38 | -27.55207 | 151.79347 | 1460 ft | 0 kts | 133° |
| 2026-04-25 07:38 | -27.55212 | 151.79354 | 1460 ft | 3 kts | 135° |
| 2026-04-25 07:38 | -27.55223 | 151.79367 | 1461 ft | 4 kts | 130° |
| 2026-04-25 07:38 | -27.55246 | 151.79379 | 1461 ft | 5 kts | 217° |
| 2026-04-25 07:39 | -27.55286 | 151.79336 | 1460 ft | 7 kts | 225° |
| 2026-04-25 07:39 | -27.55317 | 151.79326 | 1461 ft | 7 kts | 130° |
| 2026-04-25 07:39 | -27.55361 | 151.79381 | 1463 ft | 10 kts | 134° |
| 2026-04-25 07:39 | -27.55410 | 151.79442 | 1465 ft | 7 kts | 127° |
| 2026-04-25 07:40 | -27.55415 | 151.79456 | 1465 ft | 0 kts | 96° |
| 2026-04-25 07:52 | -27.55416 | 151.79457 | 1465 ft | 0 kts | 152° |
| 2026-04-25 07:53 | -27.55420 | 151.79460 | 1465 ft | 5 kts | 146° |
| 2026-04-25 07:53 | -27.55434 | 151.79461 | 1466 ft | 3 kts | 212° |
| 2026-04-25 07:53 | -27.55473 | 151.79412 | 1463 ft | 17 kts | 220° |
| 2026-04-25 07:53 | -27.55514 | 151.79371 | 1461 ft | 0 kts | 240° |
| 2026-04-25 07:54 | -27.55514 | 151.79356 | 1461 ft | 0 kts | 292° |
| 2026-04-25 07:54 | -27.55520 | 151.79349 | 1461 ft | 6 kts | 214° |
| 2026-04-25 07:54 | -27.55564 | 151.79323 | 1464 ft | 12 kts | 200° |
| 2026-04-25 07:55 | -27.55595 | 151.79329 | 1465 ft | 0 kts | 131° |
| 2026-04-25 07:55 | -27.55667 | 151.79419 | 1467 ft | 38 kts | 133° |
| 2026-04-25 07:55 | -27.55930 | 151.79731 | 1491 ft | 68 kts | 131° |
| 2026-04-25 07:55 | -27.56251 | 151.80135 | 1628 ft | 72 kts | 127° |
| 2026-04-25 07:56 | -27.56603 | 151.80541 | 1814 ft | 72 kts | 130° |
| 2026-04-25 07:56 | -27.56938 | 151.80970 | 1955 ft | 75 kts | 128° |
| 2026-04-25 07:56 | -27.57308 | 151.81421 | 2097 ft | 80 kts | 133° |
| 2026-04-25 07:56 | -27.57691 | 151.81875 | 2215 ft | 84 kts | 131° |
| 2026-04-25 07:57 | -27.58073 | 151.82380 | 2307 ft | 86 kts | 124° |
| 2026-04-25 07:57 | -27.58448 | 151.82933 | 2397 ft | 94 kts | 123° |
| 2026-04-25 07:57 | -27.58858 | 151.83569 | 2394 ft | 103 kts | 124° |
| 2026-04-25 07:57 | -27.59277 | 151.84210 | 2394 ft | 101 kts | 125° |
| 2026-04-25 07:58 | -27.59694 | 151.84841 | 2395 ft | 102 kts | 126° |
| 2026-04-25 07:58 | -27.60197 | 151.85387 | 2390 ft | 102 kts | 155° |
| 2026-04-25 07:58 | -27.60902 | 151.85431 | 2482 ft | 106 kts | 183° |
| 2026-04-25 07:58 | -27.61557 | 151.85029 | 2667 ft | 110 kts | 216° |
| 2026-04-25 07:59 | -27.61917 | 151.84259 | 2865 ft | 114 kts | 253° |
| 2026-04-25 07:59 | -27.61853 | 151.83406 | 3099 ft | 105 kts | 279° |
| 2026-04-25 07:59 | -27.61696 | 151.82654 | 3325 ft | 92 kts | 278° |
| 2026-04-25 07:59 | -27.61558 | 151.81984 | 3475 ft | 88 kts | 278° |
| 2026-04-25 08:00 | -27.61409 | 151.81261 | 3471 ft | 105 kts | 279° |
| 2026-04-25 08:00 | -27.61239 | 151.80429 | 3591 ft | 111 kts | 279° |
| 2026-04-25 08:00 | -27.61058 | 151.79524 | 3653 ft | 123 kts | 279° |
| 2026-04-25 08:00 | -27.60860 | 151.78546 | 3735 ft | 132 kts | 279° |
| 2026-04-25 08:01 | -27.60650 | 151.77515 | 3816 ft | 136 kts | 279° |
| 2026-04-25 08:01 | -27.60439 | 151.76463 | 3905 ft | 138 kts | 279° |
| 2026-04-25 08:01 | -27.60229 | 151.75413 | 4027 ft | 136 kts | 279° |
| 2026-04-25 08:01 | -27.60023 | 151.74370 | 4164 ft | 136 kts | 279° |
| 2026-04-25 08:02 | -27.59819 | 151.73343 | 4290 ft | 135 kts | 278° |
| 2026-04-25 08:02 | -27.59617 | 151.72319 | 4448 ft | 133 kts | 278° |
| 2026-04-25 08:02 | -27.59416 | 151.71301 | 4600 ft | 133 kts | 277° |
| 2026-04-25 08:02 | -27.59215 | 151.70286 | 4748 ft | 132 kts | 278° |
| 2026-04-25 08:03 | -27.59017 | 151.69285 | 4900 ft | 130 kts | 278° |
| 2026-04-25 08:03 | -27.58821 | 151.68296 | 4991 ft | 132 kts | 278° |
| 2026-04-25 08:03 | -27.58610 | 151.67243 | 4988 ft | 142 kts | 279° |
| 2026-04-25 08:03 | -27.58354 | 151.66142 | 4983 ft | 149 kts | 291° |
| 2026-04-25 08:04 | -27.57782 | 151.65174 | 4991 ft | 153 kts | 309° |
| 2026-04-25 08:04 | -27.57124 | 151.64238 | 4988 ft | 153 kts | 310° |
| 2026-04-25 08:04 | -27.56460 | 151.63296 | 4992 ft | 154 kts | 309° |
| 2026-04-25 08:04 | -27.55795 | 151.62350 | 4987 ft | 153 kts | 309° |
| 2026-04-25 08:05 | -27.55146 | 151.61423 | 4986 ft | 149 kts | 309° |
| 2026-04-25 08:05 | -27.54513 | 151.60518 | 4984 ft | 146 kts | 309° |
| 2026-04-25 08:05 | -27.53891 | 151.59626 | 4986 ft | 144 kts | 309° |
| 2026-04-25 08:05 | -27.53273 | 151.58743 | 4983 ft | 143 kts | 309° |
| 2026-04-25 08:06 | -27.52663 | 151.57870 | 4978 ft | 141 kts | 309° |
| 2026-04-25 08:06 | -27.52058 | 151.57003 | 4986 ft | 140 kts | 309° |
| 2026-04-25 08:06 | -27.51464 | 151.56154 | 4984 ft | 140 kts | 309° |
| 2026-04-25 08:06 | -27.50863 | 151.55294 | 4983 ft | 140 kts | 309° |
| 2026-04-25 08:07 | -27.50260 | 151.54432 | 4978 ft | 140 kts | 309° |
| 2026-04-25 08:07 | -27.49632 | 151.53594 | 4973 ft | 140 kts | 321° |
| 2026-04-25 08:07 | -27.48854 | 151.52949 | 4970 ft | 138 kts | 329° |
| 2026-04-25 08:07 | -27.48074 | 151.52335 | 4974 ft | 136 kts | 329° |
| 2026-04-25 08:08 | -27.47303 | 151.51727 | 4973 ft | 134 kts | 329° |
| 2026-04-25 08:08 | -27.46541 | 151.51125 | 4973 ft | 134 kts | 329° |
| 2026-04-25 08:08 | -27.45778 | 151.50522 | 4974 ft | 135 kts | 329° |
| 2026-04-25 08:08 | -27.45018 | 151.49923 | 4971 ft | 135 kts | 330° |
| 2026-04-25 08:09 | -27.44253 | 151.49318 | 4971 ft | 134 kts | 329° |
| 2026-04-25 08:09 | -27.43486 | 151.48712 | 4965 ft | 135 kts | 330° |
| 2026-04-25 08:09 | -27.42717 | 151.48105 | 4966 ft | 136 kts | 330° |
| 2026-04-25 08:09 | -27.41940 | 151.47492 | 4967 ft | 137 kts | 329° |
| 2026-04-25 08:10 | -27.41161 | 151.46877 | 4965 ft | 137 kts | 330° |
| 2026-04-25 08:10 | -27.40383 | 151.46263 | 4968 ft | 136 kts | 329° |
| 2026-04-25 08:10 | -27.39611 | 151.45652 | 4958 ft | 135 kts | 330° |
| 2026-04-25 08:10 | -27.38847 | 151.45048 | 4959 ft | 134 kts | 331° |
| 2026-04-25 08:11 | -27.38080 | 151.44443 | 4962 ft | 135 kts | 331° |
| 2026-04-25 08:11 | -27.37316 | 151.43842 | 4959 ft | 136 kts | 330° |
| 2026-04-25 08:11 | -27.36540 | 151.43229 | 4961 ft | 137 kts | 329° |
| 2026-04-25 08:11 | -27.35763 | 151.42616 | 4957 ft | 137 kts | 329° |
| 2026-04-25 08:12 | -27.34984 | 151.42001 | 4958 ft | 137 kts | 330° |
| 2026-04-25 08:12 | -27.34203 | 151.41385 | 4958 ft | 138 kts | 331° |
| 2026-04-25 08:12 | -27.33685 | 151.40977 | 4959 ft | 138 kts | 332° |
| 2026-04-25 08:12 | -27.32637 | 151.40152 | 4959 ft | 138 kts | 331° |
| 2026-04-25 08:13 | -27.32117 | 151.39742 | 4958 ft | 138 kts | 331° |
| 2026-04-25 08:13 | -27.31328 | 151.39121 | 4959 ft | 139 kts | 330° |
| 2026-04-25 08:13 | -27.30256 | 151.38278 | 4957 ft | 142 kts | 330° |
| 2026-04-25 08:14 | -27.28614 | 151.37063 | 4949 ft | 139 kts | 349° |
| 2026-04-25 08:14 | -27.27725 | 151.37058 | 4956 ft | 121 kts | 33° |
| 2026-04-25 08:14 | -27.27156 | 151.37619 | 4963 ft | 103 kts | 72° |
| 2026-04-25 08:14 | -27.26937 | 151.38086 | 4959 ft | 102 kts | 75° |
| 2026-04-25 08:15 | -27.26523 | 151.39033 | 4958 ft | 100 kts | 75° |
| 2026-04-25 08:15 | -27.26319 | 151.39496 | 4959 ft | 100 kts | 76° |
| 2026-04-25 08:15 | -27.26004 | 151.40197 | 4958 ft | 101 kts | 75° |
| 2026-04-25 08:15 | -27.25688 | 151.40908 | 4958 ft | 102 kts | 75° |
| 2026-04-25 08:16 | -27.25269 | 151.41856 | 4959 ft | 103 kts | 75° |
| 2026-04-25 08:16 | -27.24953 | 151.42577 | 4956 ft | 102 kts | 75° |
| 2026-04-25 08:16 | -27.24740 | 151.43058 | 4959 ft | 101 kts | 75° |
| 2026-04-25 08:16 | -27.24430 | 151.43757 | 4959 ft | 102 kts | 75° |
| 2026-04-25 08:17 | -27.24116 | 151.44469 | 4957 ft | 102 kts | 76° |
| 2026-04-25 08:17 | -27.23798 | 151.45176 | 4963 ft | 101 kts | 75° |
| 2026-04-25 08:17 | -27.23481 | 151.45875 | 4964 ft | 100 kts | 75° |
| 2026-04-25 08:17 | -27.23168 | 151.46574 | 4963 ft | 100 kts | 75° |
| 2026-04-25 08:18 | -27.22854 | 151.47275 | 4960 ft | 101 kts | 75° |
| 2026-04-25 08:18 | -27.22437 | 151.48206 | 4960 ft | 101 kts | 76° |
| 2026-04-25 08:18 | -27.22217 | 151.48676 | 4958 ft | 100 kts | 76° |
| 2026-04-25 08:18 | -27.21887 | 151.49353 | 4959 ft | 98 kts | 75° |
| 2026-04-25 08:19 | -27.21667 | 151.50038 | 4953 ft | 88 kts | 99° |
| 2026-04-25 08:19 | -27.21739 | 151.50699 | 4959 ft | 86 kts | 105° |
| 2026-04-25 08:19 | -27.21830 | 151.51363 | 4955 ft | 86 kts | 105° |
| 2026-04-25 08:19 | -27.21921 | 151.52028 | 4959 ft | 86 kts | 105° |
| 2026-04-25 08:20 | -27.22013 | 151.52696 | 4959 ft | 87 kts | 105° |
| 2026-04-25 08:20 | -27.22108 | 151.53368 | 4959 ft | 87 kts | 105° |
| 2026-04-25 08:20 | -27.22206 | 151.54041 | 4961 ft | 87 kts | 105° |
| 2026-04-25 08:20 | -27.22306 | 151.54713 | 4962 ft | 87 kts | 105° |
| 2026-04-25 08:21 | -27.22408 | 151.55383 | 4961 ft | 87 kts | 105° |
| 2026-04-25 08:21 | -27.22512 | 151.56050 | 4959 ft | 86 kts | 105° |
| 2026-04-25 08:21 | -27.22616 | 151.56714 | 4957 ft | 86 kts | 105° |
| 2026-04-25 08:21 | -27.22715 | 151.57367 | 4961 ft | 86 kts | 105° |
| 2026-04-25 08:22 | -27.22811 | 151.58033 | 4964 ft | 87 kts | 105° |
| 2026-04-25 08:22 | -27.22904 | 151.58704 | 4962 ft | 87 kts | 105° |
| 2026-04-25 08:22 | -27.22997 | 151.59375 | 4958 ft | 87 kts | 105° |
| 2026-04-25 08:22 | -27.23121 | 151.60279 | 4958 ft | 88 kts | 105° |
| 2026-04-25 08:23 | -27.23183 | 151.60727 | 4964 ft | 88 kts | 105° |
| 2026-04-25 08:23 | -27.23494 | 151.61276 | 4953 ft | 89 kts | 146° |
| 2026-04-25 08:23 | -27.24119 | 151.61479 | 4835 ft | 94 kts | 157° |
| 2026-04-25 08:23 | -27.24715 | 151.61720 | 4676 ft | 88 kts | 143° |
| 2026-04-25 08:24 | -27.25227 | 151.62052 | 4587 ft | 81 kts | 144° |
| 2026-04-25 08:24 | -27.25723 | 151.62394 | 4512 ft | 86 kts | 143° |
| 2026-04-25 08:24 | -27.26233 | 151.62762 | 4440 ft | 88 kts | 143° |
| 2026-04-25 08:24 | -27.26741 | 151.63140 | 4387 ft | 88 kts | 142° |
| 2026-04-25 08:25 | -27.27237 | 151.63513 | 4355 ft | 84 kts | 141° |
| 2026-04-25 08:25 | -27.27711 | 151.63874 | 4324 ft | 83 kts | 139° |
| 2026-04-25 08:25 | -27.28202 | 151.64260 | 4217 ft | 88 kts | 140° |
| 2026-04-25 08:25 | -27.28706 | 151.64652 | 4098 ft | 88 kts | 140° |
| 2026-04-25 08:26 | -27.29197 | 151.65033 | 3985 ft | 83 kts | 140° |
| 2026-04-25 08:26 | -27.29651 | 151.65386 | 3875 ft | 76 kts | 139° |
| 2026-04-25 08:26 | -27.30084 | 151.65727 | 3785 ft | 78 kts | 139° |
| 2026-04-25 08:26 | -27.30545 | 151.66090 | 3682 ft | 84 kts | 140° |
| 2026-04-25 08:27 | -27.31036 | 151.66476 | 3563 ft | 90 kts | 141° |
| 2026-04-25 08:27 | -27.31557 | 151.66883 | 3445 ft | 93 kts | 140° |
| 2026-04-25 08:27 | -27.32091 | 151.67299 | 3322 ft | 94 kts | 140° |
| 2026-04-25 08:27 | -27.32609 | 151.67702 | 3203 ft | 87 kts | 139° |
| 2026-04-25 08:28 | -27.33093 | 151.68081 | 3090 ft | 83 kts | 140° |
| 2026-04-25 08:28 | -27.33551 | 151.68442 | 2989 ft | 80 kts | 140° |
| 2026-04-25 08:28 | -27.33994 | 151.68788 | 2882 ft | 75 kts | 139° |
| 2026-04-25 08:28 | -27.34415 | 151.69117 | 2786 ft | 72 kts | 139° |
| 2026-04-25 08:29 | -27.34824 | 151.69439 | 2697 ft | 73 kts | 139° |
| 2026-04-25 08:29 | -27.35250 | 151.69776 | 2587 ft | 76 kts | 141° |
| 2026-04-25 08:29 | -27.35688 | 151.70121 | 2491 ft | 77 kts | 141° |
| 2026-04-25 08:29 | -27.36126 | 151.70466 | 2381 ft | 79 kts | 142° |
| 2026-04-25 08:30 | -27.36587 | 151.70829 | 2271 ft | 83 kts | 141° |
| 2026-04-25 08:30 | -27.37067 | 151.71203 | 2152 ft | 85 kts | 140° |
| 2026-04-25 08:30 | -27.37551 | 151.71584 | 2042 ft | 85 kts | 142° |
| 2026-04-25 08:30 | -27.38042 | 151.71968 | 1914 ft | 85 kts | 143° |
| 2026-04-25 08:31 | -27.38529 | 151.72349 | 1802 ft | 86 kts | 143° |
| 2026-04-25 08:31 | -27.39028 | 151.72741 | 1687 ft | 88 kts | 142° |
| 2026-04-25 08:31 | -27.39518 | 151.73130 | 1598 ft | 88 kts | 140° |
| 2026-04-25 08:31 | -27.40040 | 151.73549 | 1653 ft | 99 kts | 144° |
| 2026-04-25 08:32 | -27.40631 | 151.73963 | 1729 ft | 100 kts | 145° |
| 2026-04-25 08:32 | -27.41232 | 151.74399 | 1806 ft | 104 kts | 143° |
| 2026-04-25 08:32 | -27.41812 | 151.74834 | 1939 ft | 97 kts | 143° |
| 2026-04-25 08:32 | -27.42386 | 151.75263 | 2073 ft | 100 kts | 145° |
| 2026-04-25 08:33 | -27.42959 | 151.75696 | 2202 ft | 100 kts | 158° |
| 2026-04-25 08:33 | -27.43635 | 151.75862 | 2365 ft | 99 kts | 162° |
| 2026-04-25 08:33 | -27.44321 | 151.76021 | 2493 ft | 105 kts | 162° |
| 2026-04-25 08:33 | -27.45070 | 151.76215 | 2488 ft | 115 kts | 161° |
| 2026-04-25 08:34 | -27.45838 | 151.76424 | 2503 ft | 113 kts | 161° |
| 2026-04-25 08:34 | -27.46592 | 151.76640 | 2497 ft | 114 kts | 160° |
| 2026-04-25 08:34 | -27.47348 | 151.76862 | 2501 ft | 111 kts | 160° |
| 2026-04-25 08:34 | -27.48090 | 151.77084 | 2494 ft | 110 kts | 161° |
| 2026-04-25 08:35 | -27.48830 | 151.77305 | 2494 ft | 110 kts | 161° |
| 2026-04-25 08:35 | -27.49565 | 151.77524 | 2496 ft | 108 kts | 159° |
| 2026-04-25 08:35 | -27.50291 | 151.77743 | 2493 ft | 108 kts | 159° |
| 2026-04-25 08:35 | -27.51017 | 151.77963 | 2497 ft | 109 kts | 160° |
| 2026-04-25 08:36 | -27.51744 | 151.78181 | 2494 ft | 108 kts | 160° |
| 2026-04-25 08:36 | -27.52465 | 151.78393 | 2497 ft | 107 kts | 159° |
| 2026-04-25 08:36 | -27.53188 | 151.78603 | 2495 ft | 108 kts | 160° |
| 2026-04-25 08:36 | -27.53821 | 151.78945 | 2500 ft | 99 kts | 136° |
| 2026-04-25 08:37 | -27.54306 | 151.79481 | 2498 ft | 96 kts | 133° |
| 2026-04-25 08:37 | -27.54804 | 151.79975 | 2488 ft | 97 kts | 150° |
| 2026-04-25 08:37 | -27.55491 | 151.79974 | 2506 ft | 109 kts | 195° |
| 2026-04-25 08:37 | -27.56092 | 151.79388 | 2504 ft | 119 kts | 222° |
| 2026-04-25 08:38 | -27.56638 | 151.78683 | 2503 ft | 120 kts | 223° |
| 2026-04-25 08:38 | -27.57001 | 151.77824 | 2497 ft | 128 kts | 261° |
| 2026-04-25 08:38 | -27.56766 | 151.76862 | 2506 ft | 131 kts | 305° |
| 2026-04-25 08:38 | -27.56200 | 151.76095 | 2505 ft | 123 kts | 312° |
| 2026-04-25 08:39 | -27.55675 | 151.75430 | 2493 ft | 108 kts | 311° |
| 2026-04-25 08:39 | -27.55182 | 151.74807 | 2497 ft | 107 kts | 313° |
| 2026-04-25 08:39 | -27.54591 | 151.74359 | 2490 ft | 100 kts | 352° |
| 2026-04-25 08:39 | -27.53945 | 151.74423 | 2497 ft | 90 kts | 32° |
| 2026-04-25 08:40 | -27.53341 | 151.74726 | 2391 ft | 99 kts | 36° |
| 2026-04-25 08:40 | -27.52742 | 151.75123 | 2243 ft | 96 kts | 40° |
| 2026-04-25 08:40 | -27.52400 | 151.75677 | 2081 ft | 81 kts | 87° |
| 2026-04-25 08:40 | -27.52659 | 151.76113 | 1967 ft | 74 kts | 152° |
| 2026-04-25 08:41 | -27.53114 | 151.76409 | 1859 ft | 74 kts | 137° |
| 2026-04-25 08:41 | -27.53486 | 151.76799 | 1783 ft | 76 kts | 132° |
| 2026-04-25 08:41 | -27.53852 | 151.77223 | 1730 ft | 75 kts | 130° |
| 2026-04-25 08:41 | -27.54209 | 151.77651 | 1636 ft | 74 kts | 130° |
| 2026-04-25 08:42 | -27.54555 | 151.78068 | 1562 ft | 71 kts | 130° |
| 2026-04-25 08:42 | -27.54890 | 151.78475 | 1494 ft | 71 kts | 130° |
| 2026-04-25 08:42 | -27.55187 | 151.78834 | 1445 ft | 48 kts | 129° |
| 2026-04-25 08:42 | -27.55382 | 151.79073 | 1453 ft | 37 kts | 133° |
| 2026-04-25 08:43 | -27.55547 | 151.79285 | 1463 ft | 26 kts | 107° |
| 2026-04-25 08:43 | -27.55504 | 151.79382 | 1462 ft | 11 kts | 43° |
| 2026-04-25 08:43 | -27.55451 | 151.79434 | 1464 ft | 7 kts | 31° |
| 2026-04-25 08:43 | -27.55387 | 151.79409 | 1464 ft | 17 kts | 314° |
| 2026-04-25 08:44 | -27.55298 | 151.79303 | 1460 ft | 18 kts | 309° |
| 2026-04-25 08:44 | -27.55231 | 151.79234 | 1457 ft | 4 kts | 6° |
| 2026-04-25 08:44 | -27.55196 | 151.79263 | 1457 ft | 6 kts | 43° |